createdAt,value
2023-02-21T00:00:09.419Z,4.65
2023-02-21T00:03:00.453Z,4.93
2023-02-21T00:05:47.836Z,4.95
2023-02-21T00:08:35.128Z,4.45
2023-02-21T00:11:23.946Z,4.38
2023-02-21T00:14:11.327Z,4.70
2023-02-21T00:16:58.479Z,4.25
2023-02-21T00:19:45.697Z,4.32
2023-02-21T00:22:32.857Z,3.88
2023-02-21T00:25:20.002Z,4.28
2023-02-21T00:28:07.159Z,4.28
2023-02-21T00:30:54.419Z,5.35
2023-02-21T00:33:42.135Z,4.35
2023-02-21T00:36:29.376Z,4.40
2023-02-21T00:39:16.674Z,4.22
2023-02-21T00:42:03.785Z,4.72
2023-02-21T00:44:51.019Z,4.57
2023-02-21T00:47:38.944Z,4.53
2023-02-21T00:50:26.628Z,4.65
2023-02-21T00:53:13.821Z,4.28
2023-02-21T00:56:00.895Z,5.00
2023-02-21T00:58:48.121Z,4.25
2023-02-21T01:01:35.308Z,5.30
2023-02-21T01:04:22.653Z,5.00
2023-02-21T01:07:11.907Z,4.10
2023-02-21T01:09:59.137Z,4.30
2023-02-21T01:12:46.278Z,4.28
2023-02-21T01:15:34.915Z,5.03
2023-02-21T01:18:22.067Z,4.95
2023-02-21T01:21:09.242Z,5.38
2023-02-21T01:23:56.399Z,4.72
2023-02-21T01:26:43.590Z,4.82
2023-02-21T01:29:30.955Z,4.45
2023-02-21T01:32:20.611Z,4.82
2023-02-21T01:35:07.730Z,4.75
2023-02-21T01:37:54.953Z,4.68
2023-02-21T01:40:42.079Z,4.63
2023-02-21T01:43:42.069Z,4.70
2023-02-21T01:46:38.298Z,5.10
2023-02-21T01:49:36.524Z,4.95
2023-02-21T01:52:26.099Z,5.22
2023-02-21T01:55:15.688Z,5.07
2023-02-21T01:58:05.879Z,5.35
2023-02-21T02:00:53.269Z,5.60
2023-02-21T02:03:41.379Z,5.50
2023-02-21T02:06:32.431Z,5.63
2023-02-21T02:09:42.750Z,5.13
2023-02-21T02:12:49.749Z,5.15
2023-02-21T02:15:43.047Z,4.90
2023-02-21T02:18:50.162Z,5.35
2023-02-21T02:21:57.138Z,5.53
2023-02-21T02:25:04.234Z,5.97
2023-02-21T02:28:01.751Z,6.13
2023-02-21T02:31:09.396Z,5.65
2023-02-21T02:34:01.601Z,5.47
2023-02-21T02:36:50.817Z,5.68
2023-02-21T02:39:57.789Z,5.45
2023-02-21T02:43:05.188Z,5.70
2023-02-21T02:45:59.368Z,5.70
2023-02-21T02:48:35.180Z,6.03
2023-02-21T02:51:07.426Z,5.10
2023-02-21T02:53:36.193Z,4.95
2023-02-21T02:56:10.921Z,5.68
2023-02-21T02:58:45.124Z,5.68
2023-02-21T03:01:40.908Z,5.28
2023-02-21T03:04:45.983Z,5.50
2023-02-21T03:07:54.005Z,5.38
2023-02-21T03:10:52.046Z,5.53
2023-02-21T03:13:34.053Z,5.55
2023-02-21T03:16:18.275Z,5.80
2023-02-21T03:19:05.632Z,5.80
2023-02-21T03:21:43.679Z,5.20
2023-02-21T03:24:14.001Z,5.53
2023-02-21T03:26:45.196Z,6.22
2023-02-21T03:29:34.696Z,5.47
2023-02-21T03:32:26.842Z,5.63
2023-02-21T03:34:55.697Z,5.30
2023-02-21T03:37:46.962Z,6.15
2023-02-21T03:40:18.854Z,6.07
2023-02-21T03:42:51.508Z,5.20
2023-02-21T03:45:20.656Z,5.65
2023-02-21T03:48:04.288Z,5.70
2023-02-21T03:50:33.514Z,5.82
2023-02-21T03:53:01.162Z,5.82
2023-02-21T03:55:30.428Z,5.57
2023-02-21T03:57:58.670Z,5.65
2023-02-21T04:00:26.027Z,6.20
2023-02-21T04:02:56.560Z,5.53
2023-02-21T04:05:32.484Z,6.10
2023-02-21T04:08:00.937Z,5.68
2023-02-21T04:10:28.157Z,5.70
2023-02-21T04:12:56.338Z,5.55
2023-02-21T04:15:23.843Z,5.85
2023-02-21T04:17:51.068Z,5.93
2023-02-21T04:20:18.929Z,6.53
2023-02-21T04:23:02.855Z,5.43
2023-02-21T04:25:31.593Z,5.80
2023-02-21T04:28:03.859Z,5.63
2023-02-21T04:30:31.955Z,6.05
2023-02-21T04:32:59.498Z,6.03
2023-02-21T04:35:27.561Z,6.15
2023-02-21T04:37:57.341Z,5.57
2023-02-21T04:40:26.005Z,5.53
2023-02-21T04:42:53.250Z,5.75
2023-02-21T04:45:20.800Z,5.13
2023-02-21T04:47:49.890Z,6.22
2023-02-21T04:50:17.348Z,6.03
2023-02-21T04:52:44.571Z,5.82
2023-02-21T04:55:11.851Z,5.28
2023-02-21T04:57:38.995Z,5.38
2023-02-21T05:00:08.180Z,5.43
2023-02-21T05:02:35.370Z,5.47
2023-02-21T05:05:03.489Z,5.57
2023-02-21T05:07:30.678Z,5.38
2023-02-21T05:09:57.904Z,5.20
2023-02-21T05:12:25.135Z,5.50
2023-02-21T05:14:52.337Z,5.85
2023-02-21T05:17:19.514Z,5.55
2023-02-21T05:19:48.030Z,5.85
2023-02-21T05:22:20.532Z,5.32
2023-02-21T05:24:49.316Z,5.28
2023-02-21T05:27:18.533Z,5.70
2023-02-21T05:29:50.788Z,5.70
2023-02-21T05:32:19.993Z,5.60
2023-02-21T05:34:47.984Z,5.10
2023-02-21T05:37:17.854Z,6.28
2023-02-21T05:39:45.087Z,5.40
2023-02-21T05:42:12.304Z,5.43
2023-02-21T05:44:39.833Z,6.28
2023-02-21T05:47:07.341Z,6.38
2023-02-21T05:49:34.515Z,6.25
2023-02-21T05:52:02.213Z,6.53
2023-02-21T05:54:29.384Z,6.93
2023-02-21T05:56:56.639Z,6.32
2023-02-21T05:59:23.790Z,6.75
2023-02-21T06:01:52.033Z,6.65
2023-02-21T06:04:19.634Z,6.38
2023-02-21T06:06:46.939Z,6.60
2023-02-21T06:09:14.229Z,6.45
2023-02-21T06:11:41.578Z,6.90
2023-02-21T06:14:15.794Z,6.60
2023-02-21T06:16:43.548Z,6.63
2023-02-21T06:19:12.721Z,6.15
2023-02-21T06:21:42.164Z,6.75
2023-02-21T06:24:10.653Z,6.50
2023-02-21T06:26:38.406Z,6.72
2023-02-21T06:29:05.982Z,7.07
2023-02-21T06:31:33.559Z,7.20
2023-02-21T06:34:01.349Z,6.07
2023-02-21T06:36:30.098Z,6.25
2023-02-21T06:38:58.061Z,6.55
2023-02-21T06:41:30.739Z,6.50
2023-02-21T06:43:58.993Z,6.13
2023-02-21T06:46:29.465Z,6.80
2023-02-21T06:48:57.055Z,6.13
2023-02-21T06:51:29.821Z,6.22
2023-02-21T06:53:58.539Z,6.65
2023-02-21T06:56:27.193Z,6.20
2023-02-21T06:58:54.485Z,6.68
2023-02-21T07:01:23.212Z,6.15
2023-02-21T07:03:50.485Z,6.57
2023-02-21T07:06:17.574Z,6.25
2023-02-21T07:08:44.909Z,6.50
2023-02-21T07:11:13.130Z,6.55
2023-02-21T07:13:40.702Z,6.25
2023-02-21T07:16:08.087Z,6.40
2023-02-21T07:18:35.267Z,6.90
2023-02-21T07:21:02.461Z,6.75
2023-02-21T07:23:29.691Z,5.68
2023-02-21T07:25:56.820Z,5.95
2023-02-21T07:28:24.024Z,6.13
2023-02-21T07:30:51.228Z,6.03
2023-02-21T07:33:18.399Z,6.05
2023-02-21T07:35:46.502Z,5.85
2023-02-21T07:38:24.691Z,6.68
2023-02-21T07:40:54.451Z,5.82
2023-02-21T07:43:21.781Z,6.15
2023-02-21T07:45:49.062Z,6.20
2023-02-21T07:48:16.232Z,5.90
2023-02-21T07:50:44.962Z,5.70
2023-02-21T07:53:13.296Z,5.63
2023-02-21T07:55:40.542Z,4.95
2023-02-21T07:58:08.020Z,6.03
2023-02-21T08:00:35.966Z,5.57
2023-02-21T08:03:04.100Z,5.88
2023-02-21T08:05:31.282Z,5.38
2023-02-21T08:07:58.621Z,5.63
2023-02-21T08:10:27.937Z,4.85
2023-02-21T08:12:55.631Z,5.47
2023-02-21T08:15:23.249Z,5.45
2023-02-21T08:17:51.036Z,5.53
2023-02-21T08:20:19.187Z,5.95
2023-02-21T08:22:47.238Z,5.07
2023-02-21T08:25:16.546Z,5.47
2023-02-21T08:27:44.637Z,5.63
2023-02-21T08:30:14.792Z,5.80
2023-02-21T08:32:41.975Z,5.72
2023-02-21T08:35:13.302Z,5.70
2023-02-21T08:37:45.579Z,5.60
2023-02-21T08:40:14.049Z,5.40
2023-02-21T08:42:42.051Z,5.18
2023-02-21T08:45:16.108Z,5.45
2023-02-21T08:47:43.682Z,4.95
2023-02-21T08:50:10.931Z,5.47
2023-02-21T08:52:39.416Z,5.68
2023-02-21T08:55:07.841Z,5.28
2023-02-21T08:57:35.127Z,6.32
2023-02-21T09:00:03.509Z,5.65
2023-02-21T09:02:31.474Z,6.18
2023-02-21T09:04:59.646Z,6.03
2023-02-21T09:07:28.787Z,6.18
2023-02-21T09:09:56.179Z,6.78
2023-02-21T09:12:23.389Z,6.63
2023-02-21T09:14:50.739Z,6.85
2023-02-21T09:17:17.951Z,6.57
2023-02-21T09:19:45.190Z,7.25
2023-02-21T09:22:12.581Z,7.07
2023-02-21T09:24:39.770Z,6.50
2023-02-21T09:27:07.100Z,7.25
2023-02-21T09:29:46.045Z,6.95
2023-02-21T09:32:14.274Z,7.22
2023-02-21T09:34:41.650Z,9.38
2023-02-21T09:37:09.072Z,8.70
2023-02-21T09:39:39.334Z,9.27
2023-02-21T09:42:06.978Z,6.82
2023-02-21T09:44:34.994Z,6.22
2023-02-21T09:47:06.111Z,6.00
2023-02-21T09:49:41.558Z,6.25
2023-02-21T09:52:31.605Z,5.80
2023-02-21T09:55:03.330Z,5.65
2023-02-21T09:57:30.439Z,5.53
2023-02-21T09:59:57.670Z,5.65
2023-02-21T10:02:52.979Z,6.15
2023-02-21T10:05:47.568Z,6.13
2023-02-21T10:08:39.106Z,6.00
2023-02-21T10:11:34.873Z,6.35
2023-02-21T10:14:30.590Z,8.55
2023-02-21T10:17:21.629Z,7.60
2023-02-21T10:20:02.604Z,6.25
2023-02-21T10:22:36.466Z,6.22
2023-02-21T10:25:23.880Z,6.07
2023-02-21T10:27:53.441Z,5.93
2023-02-21T10:30:41.140Z,5.60
2023-02-21T10:33:08.923Z,6.20
2023-02-21T10:35:39.619Z,6.50
2023-02-21T10:38:14.586Z,5.65
2023-02-21T10:40:47.347Z,5.68
2023-02-21T10:43:43.938Z,5.22
2023-02-21T10:46:28.182Z,5.85
2023-02-21T10:49:19.682Z,5.55
2023-02-21T10:51:46.869Z,5.47
2023-02-21T10:54:23.530Z,5.80
2023-02-21T10:56:53.132Z,5.50
2023-02-21T10:59:28.537Z,5.55
2023-02-21T11:01:57.428Z,5.53
2023-02-21T11:04:38.701Z,5.95
2023-02-21T11:07:11.797Z,5.68
2023-02-21T11:09:46.291Z,5.35
2023-02-21T11:12:23.794Z,5.63
2023-02-21T11:15:18.636Z,5.93
2023-02-21T11:17:47.105Z,6.00
2023-02-21T11:20:20.525Z,6.50
2023-02-21T11:22:49.981Z,6.05
2023-02-21T11:25:40.916Z,5.55
2023-02-21T11:28:22.733Z,6.13
2023-02-21T11:31:06.810Z,6.13
2023-02-21T11:33:39.269Z,7.15
2023-02-21T11:36:14.425Z,6.88
2023-02-21T11:38:47.359Z,6.80
2023-02-21T11:41:44.770Z,6.67
2023-02-21T11:44:36.628Z,6.28
2023-02-21T11:47:34.253Z,6.95
2023-02-21T11:50:12.694Z,6.65
2023-02-21T11:53:03.694Z,6.47
2023-02-21T11:55:30.872Z,6.15
2023-02-21T11:58:26.262Z,6.22
2023-02-21T12:01:08.411Z,5.90
2023-02-21T12:04:02.592Z,6.63
2023-02-21T12:07:03.190Z,5.93
2023-02-21T12:09:57.918Z,6.18
2023-02-21T12:13:04.899Z,5.85
2023-02-21T12:15:55.055Z,5.90
2023-02-21T12:18:48.128Z,6.28
2023-02-21T12:21:55.138Z,6.63
2023-02-21T12:24:46.819Z,6.20
2023-02-21T12:27:55.411Z,6.43
2023-02-21T12:31:02.404Z,6.30
2023-02-21T12:34:03.449Z,6.88
2023-02-21T12:36:46.731Z,6.43
2023-02-21T12:39:33.942Z,6.63
2023-02-21T12:42:40.933Z,6.28
2023-02-21T12:45:35.190Z,6.15
2023-02-21T12:50:54.354Z,5.93
2023-02-21T12:54:01.441Z,6.30
2023-02-21T12:56:35.334Z,7.40
2023-02-21T12:59:31.219Z,6.40
2023-02-21T13:02:38.280Z,6.53
2023-02-21T13:05:15.082Z,6.18
2023-02-21T13:07:57.672Z,6.85
2023-02-21T13:10:50.632Z,6.57
2023-02-21T13:13:25.794Z,6.70
2023-02-21T13:15:54.906Z,7.18
2023-02-21T13:18:32.986Z,7.18
2023-02-21T13:21:30.219Z,6.60
2023-02-21T13:24:30.289Z,6.53
2023-02-21T13:27:24.366Z,6.68
2023-02-21T13:29:52.010Z,6.72
2023-02-21T13:32:20.497Z,7.00
2023-02-21T13:35:02.297Z,6.32
2023-02-21T13:37:33.060Z,6.50
2023-02-21T13:40:26.226Z,6.03
2023-02-21T13:43:20.622Z,6.82
2023-02-21T13:45:47.941Z,6.40
2023-02-21T13:48:23.663Z,6.72
2023-02-21T13:50:57.047Z,7.50
2023-02-21T13:53:35.584Z,7.25
2023-02-21T13:56:13.440Z,7.32
2023-02-21T13:58:46.796Z,6.90
2023-02-21T14:01:26.876Z,7.43
2023-02-21T14:03:59.891Z,7.15
2023-02-21T14:06:34.022Z,6.93
2023-02-21T14:09:18.331Z,7.82
2023-02-21T14:11:50.153Z,7.40
2023-02-21T14:14:39.704Z,7.55
2023-02-21T14:17:10.830Z,8.18
2023-02-21T14:19:49.393Z,8.32
2023-02-21T14:22:24.174Z,7.95
2023-02-21T14:25:03.715Z,8.70
2023-02-21T14:27:34.454Z,8.68
2023-02-21T14:30:27.536Z,9.45
2023-02-21T14:32:59.827Z,8.60
2023-02-21T14:35:41.112Z,8.40
2023-02-21T14:38:37.034Z,8.13
2023-02-21T14:41:36.092Z,9.50
2023-02-21T14:44:31.214Z,8.95
2023-02-21T14:47:08.529Z,8.90
2023-02-21T14:50:08.426Z,9.77
2023-02-21T14:53:03.412Z,9.90
2023-02-21T14:56:10.462Z,9.80
2023-02-21T14:59:13.764Z,9.73
2023-02-21T15:02:18.052Z,9.07
2023-02-21T15:05:12.639Z,8.60
2023-02-21T15:08:16.865Z,9.40
2023-02-21T15:10:49.772Z,10.85
2023-02-21T15:13:33.081Z,10.20
2023-02-21T15:16:08.416Z,10.05
2023-02-21T15:18:38.147Z,11.00
2023-02-21T15:21:20.337Z,10.30
2023-02-21T15:24:15.447Z,10.88
2023-02-21T15:26:42.792Z,10.25
2023-02-21T15:29:16.487Z,10.00
2023-02-21T15:31:51.340Z,10.90
2023-02-21T15:34:22.105Z,10.63
2023-02-21T15:37:02.518Z,10.32
2023-02-21T15:39:55.612Z,9.77
2023-02-21T15:42:25.575Z,10.17
2023-02-21T15:45:03.539Z,9.50
2023-02-21T15:47:34.290Z,10.30
2023-02-21T15:50:07.601Z,9.98
2023-02-21T15:52:54.665Z,10.68
2023-02-21T15:55:24.867Z,10.13
2023-02-21T15:58:31.785Z,10.88
2023-02-21T16:01:20.733Z,10.10
2023-02-21T16:03:47.936Z,10.13
2023-02-21T16:06:35.046Z,10.00
2023-02-21T16:09:25.652Z,9.55
2023-02-21T16:12:14.810Z,10.50
2023-02-21T16:15:01.046Z,9.27
2023-02-21T16:17:35.486Z,9.90
2023-02-21T16:20:31.093Z,9.90
2023-02-21T16:23:38.204Z,9.80
2023-02-21T16:26:28.390Z,9.45
2023-02-21T16:28:59.997Z,9.57
2023-02-21T16:31:33.002Z,10.52
2023-02-21T16:34:00.534Z,10.27
2023-02-21T16:36:30.373Z,9.88
2023-02-21T16:38:58.832Z,10.20
2023-02-21T16:41:26.402Z,9.68
2023-02-21T16:43:53.698Z,10.07
2023-02-21T16:46:28.304Z,9.73
2023-02-21T16:48:57.376Z,10.55
2023-02-21T16:51:33.707Z,10.15
2023-02-21T16:54:02.189Z,10.07
2023-02-21T16:56:29.560Z,9.30
2023-02-21T16:58:57.329Z,10.27
2023-02-21T17:01:32.828Z,8.88
2023-02-21T17:04:02.532Z,10.23
2023-02-21T17:06:29.714Z,10.63
2023-02-21T17:08:58.888Z,12.38
2023-02-21T17:11:27.024Z,14.18
2023-02-21T17:13:54.248Z,12.45
2023-02-21T17:16:21.738Z,12.77
2023-02-21T17:18:49.061Z,13.43
2023-02-21T17:21:16.544Z,13.00
2023-02-21T17:23:43.991Z,12.20
2023-02-21T17:26:12.420Z,13.18
2023-02-21T17:28:39.814Z,12.57
2023-02-21T17:31:07.418Z,12.75
2023-02-21T17:33:35.724Z,14.07
2023-02-21T17:36:03.073Z,13.68
2023-02-21T17:38:30.343Z,13.70
2023-02-21T17:40:57.741Z,14.65
2023-02-21T17:43:25.054Z,12.48
2023-02-21T17:45:52.221Z,13.10
2023-02-21T17:48:19.366Z,12.20
2023-02-21T17:50:46.485Z,14.25
2023-02-21T17:53:13.663Z,12.50
2023-02-21T17:55:40.818Z,13.35
2023-02-21T17:58:09.760Z,12.93
2023-02-21T18:00:37.179Z,12.10
2023-02-21T18:03:06.553Z,13.23
2023-02-21T18:05:34.021Z,13.10
2023-02-21T18:08:01.447Z,13.40
2023-02-21T18:10:28.662Z,13.98
2023-02-21T18:12:56.649Z,14.15
2023-02-21T18:15:27.517Z,14.15
2023-02-21T18:17:55.012Z,15.07
2023-02-21T18:20:22.302Z,15.50
2023-02-21T18:22:49.616Z,14.05
2023-02-21T18:25:18.713Z,14.35
2023-02-21T18:27:46.001Z,14.82
2023-02-21T18:30:13.849Z,14.20
2023-02-21T18:32:41.064Z,13.98
2023-02-21T18:35:08.414Z,14.20
2023-02-21T18:37:35.912Z,13.10
2023-02-21T18:40:05.046Z,12.38
2023-02-21T18:42:32.234Z,12.30
2023-02-21T18:44:59.456Z,11.75
2023-02-21T18:47:27.340Z,12.63
2023-02-21T18:49:56.588Z,11.40
2023-02-21T18:52:24.178Z,11.68
2023-02-21T18:54:51.728Z,10.40
2023-02-21T18:57:21.226Z,12.05
2023-02-21T18:59:48.653Z,12.05
2023-02-21T19:02:17.875Z,12.30
2023-02-21T19:04:45.828Z,12.55
2023-02-21T19:07:16.939Z,12.02
2023-02-21T19:09:50.376Z,11.98
2023-02-21T19:12:17.786Z,11.38
2023-02-21T19:14:45.030Z,10.93
2023-02-21T19:17:12.254Z,11.77
2023-02-21T19:19:39.439Z,10.75
2023-02-21T19:22:06.979Z,10.90
2023-02-21T19:24:34.129Z,11.38
2023-02-21T19:27:02.090Z,12.63
2023-02-21T19:29:29.339Z,11.00
2023-02-21T19:31:57.051Z,13.10
2023-02-21T19:34:24.430Z,11.80
2023-02-21T19:36:51.686Z,12.07
2023-02-21T19:39:19.125Z,12.15
2023-02-21T19:41:47.036Z,11.90
2023-02-21T19:44:14.683Z,12.63
2023-02-21T19:46:41.898Z,13.55
2023-02-21T19:49:18.315Z,13.32
2023-02-21T19:51:47.881Z,13.82
2023-02-21T19:54:17.227Z,13.68
2023-02-21T19:56:44.794Z,13.38
2023-02-21T19:59:12.351Z,13.40
2023-02-21T20:01:40.098Z,13.80
2023-02-21T20:04:07.632Z,14.48
2023-02-21T20:06:36.292Z,14.90
2023-02-21T20:09:07.330Z,15.48
2023-02-21T20:11:35.892Z,15.57
2023-02-21T20:14:03.043Z,17.17
2023-02-21T20:16:30.257Z,16.77
2023-02-21T20:18:58.043Z,18.98
2023-02-21T20:21:29.098Z,19.15
2023-02-21T20:23:57.962Z,19.27
2023-02-21T20:26:25.984Z,20.10
2023-02-21T20:28:54.037Z,18.63
2023-02-21T20:31:23.952Z,18.92
2023-02-21T20:33:51.221Z,18.85
2023-02-21T20:36:27.917Z,19.20
2023-02-21T20:38:55.175Z,17.48
2023-02-21T20:41:22.679Z,17.98
2023-02-21T20:43:49.945Z,18.30
2023-02-21T20:46:22.103Z,16.10
2023-02-21T20:48:50.067Z,17.50
2023-02-21T20:51:18.546Z,16.35
2023-02-21T20:53:49.534Z,17.10
2023-02-21T20:56:16.775Z,18.00
2023-02-21T20:58:43.929Z,16.92
2023-02-21T21:01:15.416Z,18.23
2023-02-21T21:03:42.897Z,18.95
2023-02-21T21:06:11.783Z,18.30
2023-02-21T21:08:39.005Z,17.35
2023-02-21T21:11:08.944Z,16.55
2023-02-21T21:13:36.642Z,14.98
2023-02-21T21:16:05.327Z,15.60
2023-02-21T21:18:33.415Z,18.20
2023-02-21T21:21:00.604Z,18.48
2023-02-21T21:23:27.838Z,19.17
2023-02-21T21:25:54.914Z,18.67
2023-02-21T21:28:22.161Z,18.38
2023-02-21T21:30:49.461Z,18.40
2023-02-21T21:33:19.826Z,17.75
2023-02-21T21:35:46.966Z,20.35
2023-02-21T21:38:16.039Z,20.67
2023-02-21T21:40:47.895Z,19.98
2023-02-21T21:43:15.388Z,20.25
2023-02-21T21:45:44.624Z,18.95
2023-02-21T21:48:14.795Z,18.23
2023-02-21T21:50:44.954Z,17.48
2023-02-21T21:53:12.446Z,18.15
2023-02-21T21:55:39.733Z,17.75
2023-02-21T21:58:10.750Z,17.33
2023-02-21T22:00:42.166Z,17.65
2023-02-21T22:03:14.591Z,16.65
2023-02-21T22:05:43.490Z,17.05
2023-02-21T22:08:16.649Z,17.67
2023-02-21T22:10:45.852Z,19.77
2023-02-21T22:13:20.996Z,18.85
2023-02-21T22:15:48.791Z,17.90
2023-02-21T22:18:20.139Z,19.80
2023-02-21T22:20:51.438Z,18.38
2023-02-21T22:23:27.147Z,18.42
2023-02-21T22:25:54.424Z,19.02
2023-02-21T22:28:21.524Z,17.45
2023-02-21T22:30:50.400Z,18.15
2023-02-21T22:33:20.161Z,18.30
2023-02-21T22:35:47.499Z,20.95
2023-02-21T22:38:17.450Z,19.10
2023-02-21T22:40:46.564Z,20.10
2023-02-21T22:43:14.111Z,21.92
2023-02-21T22:45:47.968Z,21.20
2023-02-21T22:48:18.250Z,19.52
2023-02-21T22:50:47.778Z,20.73
2023-02-21T22:53:19.010Z,20.88
2023-02-21T22:55:51.805Z,19.58
2023-02-21T22:58:20.683Z,18.88
2023-02-21T23:00:49.248Z,19.35
2023-02-21T23:03:17.894Z,20.10
2023-02-21T23:05:50.138Z,19.33
2023-02-21T23:08:20.000Z,19.65
2023-02-21T23:10:48.243Z,18.05
2023-02-21T23:13:19.014Z,19.77
2023-02-21T23:15:47.566Z,17.92
2023-02-21T23:18:20.923Z,18.00
2023-02-21T23:23:26.257Z,17.08
2023-02-21T23:25:59.472Z,18.40
2023-02-21T23:28:29.166Z,18.42
2023-02-21T23:30:58.224Z,19.25
2023-02-21T23:33:28.564Z,19.10
2023-02-21T23:35:57.541Z,19.70
2023-02-21T23:38:28.344Z,20.45
2023-02-21T23:40:58.252Z,23.90
2023-02-21T23:43:29.650Z,21.15
2023-02-21T23:45:59.026Z,19.05
2023-02-21T23:48:26.785Z,18.05
2023-02-21T23:50:58.233Z,19.70
2023-02-21T23:53:28.476Z,18.90
2023-02-21T23:55:57.813Z,17.85
2023-02-21T23:58:28.143Z,19.13
